aviador You're here:

UBBG Decoded Metar

GYANDZHA in RUSSIA
Report Time2017-10-17 11:00:00
UTC Time2017-10-17 11:22:07
Flight Rules vfr VFR
Wind300° at 22 kt
W.Decomp.*RWY 30: 21.9 kt HW 1.5 kt LCW
W.Rank300° ranks 1
Current wind is above 300° avg. (10.0)
Visibility9999 m
Phenomena:N/A
Clouds:Scattered 100 Hf
Expected CloudBase > 5,200 ft AGL from Temp-Dew spread
CeilingNone
Temp17°C (ISA +4)
Dew Point04°C (42% RH)
AAT7.8°C
QNH1018 hPa
Density Alt1,516 ft
Elevation1,083 ft
Report Wrong Elevation
Raw Report
UBBG 171100Z 30022KT 9999 SCT100 17/04 Q1018 R30/CLRD// NOSIG=

Extra information for UBBG:More info

Metar Taf Metar & Taf Last 4 Metars F.Rules Stats Wind Profile Meteogram Temp Stats Airport Information Weather charts Add Link Nearby VenuesMetar ALERT Operation Metar Decoded Social comments